sensor_id;sensor_type;location;lat;lon;timestamp;P1;durP1;ratioP1;P2;durP2;ratioP2
29414;SDS011;20303;48.302;11.914;2023-04-09T00:06:41;2.50;;;2.30;;
29414;SDS011;20303;48.302;11.914;2023-04-09T00:16:42;2.42;;;2.20;;
29414;SDS011;20303;48.302;11.914;2023-04-09T00:26:43;2.22;;;2.03;;
29414;SDS011;20303;48.302;11.914;2023-04-09T00:46:45;2.23;;;1.97;;
29414;SDS011;20303;48.302;11.914;2023-04-09T00:56:46;2.20;;;2.00;;
29414;SDS011;20303;48.302;11.914;2023-04-09T01:06:49;2.20;;;2.00;;
29414;SDS011;20303;48.302;11.914;2023-04-09T01:16:54;2.08;;;1.88;;
29414;SDS011;20303;48.302;11.914;2023-04-09T01:27:06;2.40;;;2.17;;
29414;SDS011;20303;48.302;11.914;2023-04-09T01:37:07;2.20;;;2.00;;
29414;SDS011;20303;48.302;11.914;2023-04-09T01:47:09;1.90;;;1.80;;
29414;SDS011;20303;48.302;11.914;2023-04-09T01:57:10;2.20;;;2.00;;
29414;SDS011;20303;48.302;11.914;2023-04-09T02:07:14;2.30;;;2.10;;
29414;SDS011;20303;48.302;11.914;2023-04-09T02:17:37;2.05;;;1.80;;
29414;SDS011;20303;48.302;11.914;2023-04-09T02:27:38;2.10;;;1.90;;
29414;SDS011;20303;48.302;11.914;2023-04-09T02:37:39;2.10;;;1.90;;
29414;SDS011;20303;48.302;11.914;2023-04-09T02:57:41;2.03;;;1.83;;
29414;SDS011;20303;48.302;11.914;2023-04-09T03:17:43;2.00;;;1.80;;
29414;SDS011;20303;48.302;11.914;2023-04-09T03:37:45;1.90;;;1.80;;
29414;SDS011;20303;48.302;11.914;2023-04-09T03:47:47;1.90;;;1.80;;
29414;SDS011;20303;48.302;11.914;2023-04-09T04:07:49;1.70;;;1.60;;
29414;SDS011;20303;48.302;11.914;2023-04-09T04:17:50;2.13;;;1.90;;
29414;SDS011;20303;48.302;11.914;2023-04-09T04:37:53;2.13;;;1.92;;
29414;SDS011;20303;48.302;11.914;2023-04-09T04:57:55;1.80;;;1.70;;
29414;SDS011;20303;48.302;11.914;2023-04-09T05:17:57;1.83;;;1.70;;
29414;SDS011;20303;48.302;11.914;2023-04-09T05:27:59;1.73;;;1.63;;
29414;SDS011;20303;48.302;11.914;2023-04-09T05:48:01;1.70;;;1.60;;
29414;SDS011;20303;48.302;11.914;2023-04-09T05:58:02;1.70;;;1.60;;
29414;SDS011;20303;48.302;11.914;2023-04-09T06:18:04;1.77;;;1.67;;
29414;SDS011;20303;48.302;11.914;2023-04-09T06:28:05;1.95;;;1.80;;
29414;SDS011;20303;48.302;11.914;2023-04-09T06:38:06;2.00;;;1.80;;
29414;SDS011;20303;48.302;11.914;2023-04-09T06:48:09;1.85;;;1.70;;
29414;SDS011;20303;48.302;11.914;2023-04-09T06:58:10;2.35;;;1.85;;
29414;SDS011;20303;48.302;11.914;2023-04-09T07:18:12;1.93;;;1.77;;
29414;SDS011;20303;48.302;11.914;2023-04-09T07:38:14;1.80;;;1.70;;
29414;SDS011;20303;48.302;11.914;2023-04-09T07:48:16;1.70;;;1.60;;
29414;SDS011;20303;48.302;11.914;2023-04-09T07:58:17;2.00;;;1.80;;
29414;SDS011;20303;48.302;11.914;2023-04-09T08:18:19;2.20;;;2.00;;
29414;SDS011;20303;48.302;11.914;2023-04-09T08:28:20;1.73;;;1.63;;
29414;SDS011;20303;48.302;11.914;2023-04-09T08:38:21;2.08;;;1.88;;
29414;SDS011;20303;48.302;11.914;2023-04-09T08:58:23;2.20;;;2.00;;
29414;SDS011;20303;48.302;11.914;2023-04-09T09:08:24;2.25;;;2.05;;
29414;SDS011;20303;48.302;11.914;2023-04-09T09:18:39;2.40;;;2.20;;
29414;SDS011;20303;48.302;11.914;2023-04-09T09:28:41;2.50;;;2.28;;
29414;SDS011;20303;48.302;11.914;2023-04-09T09:38:53;2.60;;;2.40;;
29414;SDS011;20303;48.302;11.914;2023-04-09T09:48:57;2.70;;;2.50;;
29414;SDS011;20303;48.302;11.914;2023-04-09T10:09:23;2.60;;;2.40;;
29414;SDS011;20303;48.302;11.914;2023-04-09T10:19:26;3.20;;;2.90;;
29414;SDS011;20303;48.302;11.914;2023-04-09T10:29:28;2.63;;;2.42;;
29414;SDS011;20303;48.302;11.914;2023-04-09T10:39:32;2.67;;;2.47;;
29414;SDS011;20303;48.302;11.914;2023-04-09T10:49:37;3.10;;;2.80;;
29414;SDS011;20303;48.302;11.914;2023-04-09T10:59:40;3.05;;;2.75;;
29414;SDS011;20303;48.302;11.914;2023-04-09T11:09:43;3.35;;;2.83;;
29414;SDS011;20303;48.302;11.914;2023-04-09T11:19:45;3.28;;;2.97;;
29414;SDS011;20303;48.302;11.914;2023-04-09T11:29:46;3.30;;;3.00;;
29414;SDS011;20303;48.302;11.914;2023-04-09T11:39:47;3.53;;;3.20;;
29414;SDS011;20303;48.302;11.914;2023-04-09T11:49:53;3.25;;;2.95;;
29414;SDS011;20303;48.302;11.914;2023-04-09T11:59:54;3.50;;;3.20;;
29414;SDS011;20303;48.302;11.914;2023-04-09T12:09:55;3.50;;;3.20;;
29414;SDS011;20303;48.302;11.914;2023-04-09T12:19:56;3.65;;;3.35;;
29414;SDS011;20303;48.302;11.914;2023-04-09T12:29:57;3.65;;;3.35;;
29414;SDS011;20303;48.302;11.914;2023-04-09T12:39:58;4.00;;;3.60;;
29414;SDS011;20303;48.302;11.914;2023-04-09T12:49:59;3.90;;;3.50;;
29414;SDS011;20303;48.302;11.914;2023-04-09T13:00:01;4.00;;;3.60;;
29414;SDS011;20303;48.302;11.914;2023-04-09T13:10:04;3.88;;;3.50;;
29414;SDS011;20303;48.302;11.914;2023-04-09T13:20:05;3.78;;;3.47;;
29414;SDS011;20303;48.302;11.914;2023-04-09T13:30:07;3.70;;;3.40;;
29414;SDS011;20303;48.302;11.914;2023-04-09T13:40:08;4.15;;;3.75;;
29414;SDS011;20303;48.302;11.914;2023-04-09T13:50:09;4.10;;;3.70;;
29414;SDS011;20303;48.302;11.914;2023-04-09T14:00:12;4.20;;;3.80;;
29414;SDS011;20303;48.302;11.914;2023-04-09T14:10:13;4.00;;;3.60;;
29414;SDS011;20303;48.302;11.914;2023-04-09T14:20:15;4.10;;;3.70;;
29414;SDS011;20303;48.302;11.914;2023-04-09T14:30:18;3.97;;;3.58;;
29414;SDS011;20303;48.302;11.914;2023-04-09T14:40:21;4.30;;;3.90;;
29414;SDS011;20303;48.302;11.914;2023-04-09T14:50:22;3.92;;;3.53;;
29414;SDS011;20303;48.302;11.914;2023-04-09T15:00:23;4.10;;;3.70;;
29414;SDS011;20303;48.302;11.914;2023-04-09T15:10:24;4.30;;;3.90;;
29414;SDS011;20303;48.302;11.914;2023-04-09T15:20:25;4.10;;;3.70;;
29414;SDS011;20303;48.302;11.914;2023-04-09T15:30:26;4.30;;;3.90;;
29414;SDS011;20303;48.302;11.914;2023-04-09T15:40:27;4.53;;;4.13;;
29414;SDS011;20303;48.302;11.914;2023-04-09T15:50:29;4.93;;;4.43;;
29414;SDS011;20303;48.302;11.914;2023-04-09T16:00:30;4.20;;;3.80;;
29414;SDS011;20303;48.302;11.914;2023-04-09T16:10:32;4.72;;;4.22;;
29414;SDS011;20303;48.302;11.914;2023-04-09T16:20:33;4.63;;;4.10;;
29414;SDS011;20303;48.302;11.914;2023-04-09T16:30:34;4.38;;;3.97;;
29414;SDS011;20303;48.302;11.914;2023-04-09T16:40:35;5.13;;;4.22;;
29414;SDS011;20303;48.302;11.914;2023-04-09T16:50:37;4.90;;;4.40;;
29414;SDS011;20303;48.302;11.914;2023-04-09T17:00:38;5.03;;;4.53;;
29414;SDS011;20303;48.302;11.914;2023-04-09T17:10:39;5.00;;;4.32;;
29414;SDS011;20303;48.302;11.914;2023-04-09T17:20:40;4.93;;;4.43;;
29414;SDS011;20303;48.302;11.914;2023-04-09T17:30:41;4.80;;;4.30;;
29414;SDS011;20303;48.302;11.914;2023-04-09T17:40:42;4.68;;;4.25;;
29414;SDS011;20303;48.302;11.914;2023-04-09T17:50:44;5.07;;;4.57;;
29414;SDS011;20303;48.302;11.914;2023-04-09T18:00:45;5.03;;;4.47;;
29414;SDS011;20303;48.302;11.914;2023-04-09T18:10:46;5.00;;;4.50;;
29414;SDS011;20303;48.302;11.914;2023-04-09T18:20:53;5.05;;;4.55;;
29414;SDS011;20303;48.302;11.914;2023-04-09T18:30:54;5.00;;;4.50;;
29414;SDS011;20303;48.302;11.914;2023-04-09T18:40:56;5.00;;;4.50;;
29414;SDS011;20303;48.302;11.914;2023-04-09T18:50:57;4.90;;;4.40;;
29414;SDS011;20303;48.302;11.914;2023-04-09T19:01:07;5.38;;;4.50;;
29414;SDS011;20303;48.302;11.914;2023-04-09T19:11:09;4.90;;;4.40;;
29414;SDS011;20303;48.302;11.914;2023-04-09T19:21:11;4.85;;;4.40;;
29414;SDS011;20303;48.302;11.914;2023-04-09T19:31:12;5.43;;;4.70;;
29414;SDS011;20303;48.302;11.914;2023-04-09T19:41:13;4.90;;;4.40;;
29414;SDS011;20303;48.302;11.914;2023-04-09T19:51:18;4.97;;;4.47;;
29414;SDS011;20303;48.302;11.914;2023-04-09T20:01:20;5.10;;;4.60;;
29414;SDS011;20303;48.302;11.914;2023-04-09T20:11:21;4.60;;;4.18;;
29414;SDS011;20303;48.302;11.914;2023-04-09T20:21:22;4.80;;;4.30;;
29414;SDS011;20303;48.302;11.914;2023-04-09T20:31:23;5.15;;;4.50;;
29414;SDS011;20303;48.302;11.914;2023-04-09T20:41:26;4.80;;;4.30;;
29414;SDS011;20303;48.302;11.914;2023-04-09T20:51:27;4.85;;;4.35;;
29414;SDS011;20303;48.302;11.914;2023-04-09T21:01:29;5.10;;;4.43;;
29414;SDS011;20303;48.302;11.914;2023-04-09T21:11:31;4.95;;;4.45;;
29414;SDS011;20303;48.302;11.914;2023-04-09T21:21:32;5.13;;;4.60;;
29414;SDS011;20303;48.302;11.914;2023-04-09T21:31:33;4.90;;;4.40;;
29414;SDS011;20303;48.302;11.914;2023-04-09T21:41:35;4.90;;;4.40;;
29414;SDS011;20303;48.302;11.914;2023-04-09T21:51:37;5.00;;;4.50;;
29414;SDS011;20303;48.302;11.914;2023-04-09T22:01:38;5.03;;;4.45;;
29414;SDS011;20303;48.302;11.914;2023-04-09T22:11:39;5.07;;;4.57;;
29414;SDS011;20303;48.302;11.914;2023-04-09T22:21:40;5.72;;;4.53;;
29414;SDS011;20303;48.302;11.914;2023-04-09T22:31:41;5.47;;;4.97;;
29414;SDS011;20303;48.302;11.914;2023-04-09T22:41:42;5.13;;;4.63;;
29414;SDS011;20303;48.302;11.914;2023-04-09T22:51:43;5.00;;;4.50;;
29414;SDS011;20303;48.302;11.914;2023-04-09T23:01:45;5.13;;;4.63;;
29414;SDS011;20303;48.302;11.914;2023-04-09T23:11:46;5.40;;;4.90;;
29414;SDS011;20303;48.302;11.914;2023-04-09T23:21:47;4.88;;;4.38;;
29414;SDS011;20303;48.302;11.914;2023-04-09T23:31:48;4.93;;;4.43;;
29414;SDS011;20303;48.302;11.914;2023-04-09T23:41:49;5.38;;;4.88;;
29414;SDS011;20303;48.302;11.914;2023-04-09T23:51:50;4.97;;;4.47;;
